Time;durP1;ratioP1;P1;durP2;ratioP2;P2;SDS_P1;SDS_P2;PMS_P1;PMS_P2;Temp;Humidity;BMP_temperature;BMP_pressure;BME280_temperature;BME280_humidity;BME280_pressure;Samples;Min_cycle;Max_cycle;Signal;HPM_P1;HPM_P2
2023/04/28 00:00:43;;;;;;;10.23;4.82;;;;;;;7.56;100.00;101464.00;5036283;28;20453;-71
2023/04/28 00:03:09;;;;;;;10.00;4.82;;;;;;;7.55;100.00;101462.34;5035655;28;20029;-72
2023/04/28 00:05:34;;;;;;;9.57;5.18;;;;;;;7.55;100.00;101467.63;5036338;28;20064;-72
2023/04/28 00:08:00;;;;;;;11.30;5.20;;;;;;;7.54;100.00;101463.28;5034544;28;20493;-71
2023/04/28 00:10:25;;;;;;;7.75;5.32;;;;;;;7.54;100.00;101465.09;5034689;28;20497;-72
2023/04/28 00:12:51;;;;;;;10.07;5.50;;;;;;;7.53;100.00;101458.09;5036359;28;20083;-71
2023/04/28 00:15:16;;;;;;;8.65;4.70;;;;;;;7.53;100.00;101458.91;5034324;28;20036;-72
2023/04/28 00:17:42;;;;;;;7.75;4.90;;;;;;;7.52;100.00;101456.38;5034406;28;20379;-72
2023/04/28 00:20:08;;;;;;;7.80;4.88;;;;;;;7.52;100.00;101445.78;5034408;28;20116;-71
2023/04/28 00:22:33;;;;;;;6.28;5.45;;;;;;;7.52;100.00;101451.09;5035441;28;20034;-71
2023/04/28 00:24:59;;;;;;;7.63;5.00;;;;;;;7.51;100.00;101436.13;5035492;28;20055;-71
2023/04/28 00:27:24;;;;;;;11.75;5.18;;;;;;;7.49;100.00;101432.75;5036178;28;20026;-72
2023/04/28 00:29:49;;;;;;;8.25;5.00;;;;;;;7.47;100.00;101424.09;5035089;28;20033;-72
2023/04/28 00:32:15;;;;;;;11.43;5.10;;;;;;;7.46;100.00;101420.56;5033867;28;20139;-72
2023/04/28 00:34:40;;;;;;;7.00;4.63;;;;;;;7.45;100.00;101410.94;5035156;28;20092;-72
2023/04/28 00:37:06;;;;;;;6.75;5.18;;;;;;;7.42;100.00;101411.16;5035811;28;20360;-72
2023/04/28 00:39:31;;;;;;;8.85;5.50;;;;;;;7.43;100.00;101406.69;5035378;28;20026;-71
2023/04/28 00:41:56;;;;;;;10.80;5.60;;;;;;;7.41;100.00;101407.63;5035188;28;20463;-71
2023/04/28 00:44:22;;;;;;;6.93;5.05;;;;;;;7.40;100.00;101405.09;5035039;28;20030;-71
2023/04/28 00:46:47;;;;;;;7.65;5.60;;;;;;;7.40;100.00;101405.97;5034943;28;20034;-71
2023/04/28 00:49:15;;;;;;;9.98;5.40;;;;;;;7.39;100.00;101391.03;5035274;28;20033;-71
2023/04/28 00:51:40;;;;;;;14.73;5.78;;;;;;;7.40;100.00;101392.72;5033665;28;20121;-71
2023/04/28 00:54:06;;;;;;;9.05;5.30;;;;;;;7.37;100.00;101386.78;5034949;28;20418;-71
2023/04/28 00:56:33;;;;;;;7.70;5.60;;;;;;;7.38;100.00;101388.47;5034701;28;20036;-71
2023/04/28 00:58:58;;;;;;;10.32;5.45;;;;;;;7.36;100.00;101393.00;5034672;28;20163;-71
2023/04/28 01:01:24;;;;;;;8.57;5.28;;;;;;;7.33;100.00;101387.94;5034665;28;20112;-71
2023/04/28 01:03:49;;;;;;;9.18;5.35;;;;;;;7.33;100.00;101378.22;5034333;28;20058;-72
2023/04/28 01:06:15;;;;;;;11.82;5.88;;;;;;;7.33;100.00;101374.69;5034678;28;20038;-72
2023/04/28 01:08:42;;;;;;;9.52;5.47;;;;;;;7.33;100.00;101372.03;5033891;28;20029;-72
2023/04/28 01:11:12;;;;;;;8.05;5.30;;;;;;;7.33;100.00;101364.09;5034476;28;20033;-72
2023/04/28 01:13:38;;;;;;;12.75;6.07;;;;;;;7.31;100.00;101369.50;5034524;28;20033;-72
2023/04/28 01:16:04;;;;;;;7.20;5.53;;;;;;;7.30;100.00;101361.66;5033413;28;20029;-72
2023/04/28 01:18:30;;;;;;;9.38;5.47;;;;;;;7.30;100.00;101361.66;5034563;28;20029;-72
2023/04/28 01:20:56;;;;;;;9.70;5.20;;;;;;;7.29;100.00;101358.19;5034040;28;20408;-72
2023/04/28 01:23:21;;;;;;;8.77;5.60;;;;;;;7.27;100.00;101349.53;5032793;28;20057;-72
2023/04/28 01:25:46;;;;;;;11.77;5.70;;;;;;;7.25;100.00;101354.06;5034687;28;20061;-72
2023/04/28 01:28:12;;;;;;;7.10;5.53;;;;;;;7.24;100.00;101349.72;5034407;28;20048;-72
2023/04/28 01:30:37;;;;;;;8.85;5.95;;;;;;;7.23;100.00;101340.91;5034034;28;20030;-72
2023/04/28 01:33:03;;;;;;;8.10;5.38;;;;;;;7.24;100.00;101345.28;5034007;28;20036;-72
2023/04/28 01:35:28;;;;;;;9.43;5.82;;;;;;;7.23;100.00;101346.22;5034015;28;20033;-72
2023/04/28 01:37:54;;;;;;;9.93;6.32;;;;;;;7.24;100.00;101339.97;5033787;28;20038;-72
2023/04/28 01:40:19;;;;;;;12.43;5.20;;;;;;;7.24;100.00;101333.84;5034067;28;20408;-72
2023/04/28 01:42:45;;;;;;;11.15;5.85;;;;;;;7.25;100.00;101327.56;5034181;28;20030;-72
2023/04/28 01:45:11;;;;;;;6.90;5.25;;;;;;;7.27;100.00;101327.47;5034294;28;20120;-72
2023/04/28 01:47:36;;;;;;;7.35;5.60;;;;;;;7.26;100.00;101326.63;5032463;28;20437;-75
2023/04/28 01:50:01;;;;;;;10.65;5.78;;;;;;;7.26;100.00;101331.94;5034012;28;20036;-72
2023/04/28 01:52:27;;;;;;;8.70;5.68;;;;;;;7.22;100.00;101318.03;5032506;28;20456;-72
2023/04/28 01:54:53;;;;;;;9.25;5.63;;;;;;;7.23;100.00;101317.09;5032629;28;20148;-72
2023/04/28 01:57:19;;;;;;;15.55;6.35;;;;;;;7.23;100.00;101309.16;5033713;28;20076;-72
2023/04/28 01:59:45;;;;;;;9.05;5.85;;;;;;;7.23;100.00;101301.22;5033476;28;20148;-72
2023/04/28 02:02:10;;;;;;;9.00;5.20;;;;;;;7.22;100.00;101299.50;5033929;28;20038;-72
2023/04/28 02:04:37;;;;;;;7.93;5.72;;;;;;;7.21;100.00;101289.03;5033757;28;20058;-72
2023/04/28 02:07:03;;;;;;;9.70;6.15;;;;;;;7.22;100.00;101285.44;5033110;28;20021;-72
2023/04/28 02:09:28;;;;;;;11.15;6.13;;;;;;;7.20;100.00;101290.00;5033131;28;20543;-72
2023/04/28 02:11:54;;;;;;;9.18;5.93;;;;;;;7.18;100.00;101299.84;5033211;28;20045;-72
2023/04/28 02:14:19;;;;;;;9.25;5.75;;;;;;;7.17;100.00;101296.34;5033641;28;20112;-72
2023/04/28 02:16:45;;;;;;;12.90;6.15;;;;;;;7.18;100.00;101292.75;5033454;28;20109;-72
2023/04/28 02:19:10;;;;;;;9.85;6.57;;;;;;;7.19;100.00;101293.59;5031543;28;20482;-72
2023/04/28 02:21:35;;;;;;;7.00;5.47;;;;;;;7.18;100.00;101284.81;5032395;28;20075;-72
2023/04/28 02:24:01;;;;;;;9.15;5.90;;;;;;;7.20;100.00;101277.63;5031882;28;20032;-72
2023/04/28 02:26:26;;;;;;;17.70;6.10;;;;;;;7.21;100.00;101278.44;5032942;28;20037;-71
2023/04/28 02:28:52;;;;;;;8.98;5.47;;;;;;;7.21;100.00;101273.16;5032830;28;20041;-71
2023/04/28 02:31:17;;;;;;;11.25;6.85;;;;;;;7.21;100.00;101267.84;5033717;28;20463;-72
2023/04/28 02:33:42;;;;;;;11.38;5.97;;;;;;;7.22;100.00;101270.41;5031424;28;20041;-72
2023/04/28 02:36:08;;;;;;;8.85;6.07;;;;;;;7.21;100.00;101267.84;5033131;28;20033;-71
2023/04/28 02:38:34;;;;;;;8.15;5.93;;;;;;;7.21;100.00;101271.38;5031627;28;20029;-71
2023/04/28 02:41:03;;;;;;;10.25;6.03;;;;;;;7.20;100.00;101274.13;5032822;28;20033;-71
2023/04/28 02:43:29;;;;;;;10.88;5.78;;;;;;;7.21;100.00;101263.44;5031915;28;20389;-71
2023/04/28 02:45:54;;;;;;;9.88;6.32;;;;;;;7.20;100.00;101255.59;5032940;28;20030;-71
2023/04/28 02:48:20;;;;;;;13.02;6.25;;;;;;;7.21;100.00;101257.28;5033018;28;20052;-71
2023/04/28 02:50:45;;;;;;;10.65;5.95;;;;;;;7.20;100.00;101266.19;5031818;28;20030;-71
2023/04/28 02:53:12;;;;;;;9.70;6.00;;;;;;;7.19;100.00;101251.25;5033351;28;20029;-71
2023/04/28 02:55:37;;;;;;;13.70;6.20;;;;;;;7.19;100.00;101259.19;5032932;28;20073;-72
2023/04/28 02:58:03;;;;;;;8.05;6.10;;;;;;;7.18;100.00;101252.19;5032410;28;20102;-71
2023/04/28 03:00:28;;;;;;;8.73;5.70;;;;;;;7.17;100.00;101243.41;5032998;28;20026;-71
2023/04/28 03:02:54;;;;;;;12.05;6.20;;;;;;;7.17;100.00;101238.13;5033476;28;20034;-71
2023/04/28 03:05:19;;;;;;;10.13;6.38;;;;;;;7.18;100.00;101233.66;5033107;28;20128;-71
2023/04/28 03:07:45;;;;;;;10.05;6.65;;;;;;;7.17;100.00;101238.13;5032044;28;20026;-71
2023/04/28 03:10:11;;;;;;;16.52;6.57;;;;;;;7.17;100.00;101237.28;5031797;28;20041;-72
2023/04/28 03:12:36;;;;;;;8.85;5.70;;;;;;;7.17;100.00;101234.66;5031191;28;20340;-71
2023/04/28 03:15:02;;;;;;;8.57;5.80;;;;;;;7.18;100.00;101228.38;5032757;28;20041;-71
2023/04/28 03:17:27;;;;;;;11.15;6.07;;;;;;;7.16;100.00;101211.78;5032612;28;20042;-71
2023/04/28 03:19:53;;;;;;;10.63;6.45;;;;;;;7.18;100.00;101209.84;5032877;28;20041;-73
2023/04/28 03:22:18;;;;;;;9.70;5.95;;;;;;;7.17;100.00;101203.72;5032361;28;20034;-72
2023/04/28 03:24:43;;;;;;;10.55;6.10;;;;;;;7.18;100.00;101204.56;5032965;28;20482;-72
2023/04/28 03:27:09;;;;;;;11.38;5.90;;;;;;;7.18;100.00;101204.56;5032454;28;20100;-71
2023/04/28 03:29:35;;;;;;;10.25;6.25;;;;;;;7.19;100.00;101196.50;5032781;28;20151;-71
2023/04/28 03:32:01;;;;;;;10.95;6.38;;;;;;;7.20;100.00;101200.03;5034650;28;20140;-72
2023/04/28 03:34:26;;;;;;;10.25;6.00;;;;;;;7.20;100.00;101206.16;5036438;28;20037;-71
2023/04/28 03:36:52;;;;;;;9.55;6.05;;;;;;;7.20;100.00;101192.09;5036372;28;20411;-72
2023/04/28 03:39:17;;;;;;;15.13;5.90;;;;;;;7.21;100.00;101191.97;5036828;28;20055;-72
2023/04/28 03:41:42;;;;;;;9.45;6.40;;;;;;;7.19;100.00;101190.38;5035075;28;20132;-71
2023/04/28 03:44:08;;;;;;;7.63;5.97;;;;;;;7.20;100.00;101197.38;5035833;28;20109;-72
2023/04/28 03:46:33;;;;;;;12.32;6.30;;;;;;;7.20;100.00;101189.44;5035878;28;20535;-72
2023/04/28 03:49:01;;;;;;;10.90;5.72;;;;;;;7.18;100.00;101184.25;5036347;28;20479;-73
2023/04/28 03:51:27;;;;;;;12.43;6.03;;;;;;;7.19;100.00;101171.84;5036628;28;20029;-72
2023/04/28 03:53:53;;;;;;;10.25;5.80;;;;;;;7.20;100.00;101160.31;5036300;28;20117;-72
2023/04/28 03:56:18;;;;;;;13.13;5.90;;;;;;;7.20;100.00;101152.38;5035793;28;20120;-71
2023/04/28 03:58:44;;;;;;;11.88;6.13;;;;;;;7.22;100.00;101158.41;5035642;28;20502;-72
2023/04/28 04:01:09;;;;;;;8.60;5.88;;;;;;;7.21;100.00;101149.63;5036354;28;20079;-73
2023/04/28 04:03:35;;;;;;;9.13;6.40;;;;;;;7.21;100.00;101154.91;5035916;28;20412;-73
2023/04/28 04:06:01;;;;;;;10.80;6.22;;;;;;;7.22;100.00;101166.34;5035770;28;20037;-73
2023/04/28 04:08:26;;;;;;;10.90;6.25;;;;;;;7.20;100.00;101158.50;5035787;28;20483;-73
2023/04/28 04:10:53;;;;;;;11.40;6.13;;;;;;;7.21;100.00;101157.56;5035985;28;20049;-72
2023/04/28 04:13:19;;;;;;;11.15;6.57;;;;;;;7.20;100.00;101153.22;5036122;28;20037;-73
2023/04/28 04:15:44;;;;;;;10.82;6.15;;;;;;;7.20;100.00;101152.38;5035930;28;20036;-72
2023/04/28 04:18:10;;;;;;;9.73;6.47;;;;;;;7.21;100.00;101157.56;5035561;28;20040;-73
2023/04/28 04:20:36;;;;;;;8.90;6.15;;;;;;;7.22;100.00;101161.06;5034619;28;20111;-73
2023/04/28 04:23:02;;;;;;;9.80;5.90;;;;;;;7.23;100.00;101160.09;5035531;28;20375;-73
2023/04/28 04:25:27;;;;;;;11.52;6.25;;;;;;;7.23;100.00;101166.22;5035508;28;20039;-73
2023/04/28 04:27:53;;;;;;;14.70;6.45;;;;;;;7.22;100.00;101161.88;5035406;28;20037;-73
2023/04/28 04:30:18;;;;;;;14.43;6.28;;;;;;;7.24;100.00;101160.00;5035342;28;20482;-73
2023/04/28 04:32:44;;;;;;;12.63;6.53;;;;;;;7.26;100.00;101170.47;5035148;28;20079;-73
2023/04/28 04:35:09;;;;;;;9.55;6.20;;;;;;;7.27;100.00;101180.13;5035322;28;20029;-71
2023/04/28 04:37:34;;;;;;;9.75;6.95;;;;;;;7.23;100.00;101182.13;5033630;28;20049;-72
2023/04/28 04:40:00;;;;;;;12.30;6.95;;;;;;;7.15;100.00;101183.59;5035084;28;20033;-72
2023/04/28 04:42:25;;;;;;;12.55;7.63;;;;;;;7.03;100.00;101178.25;5034615;28;20028;-71
2023/04/28 04:44:51;;;;;;;13.77;8.18;;;;;;;6.93;100.00;101173.72;5034671;28;20379;-71
2023/04/28 04:47:16;;;;;;;12.68;7.78;;;;;;;6.83;100.00;101165.56;5033731;28;20114;-71
2023/04/28 04:49:41;;;;;;;15.95;9.90;;;;;;;6.76;100.00;101159.84;5035069;28;20037;-71
2023/04/28 04:52:07;;;;;;;18.95;8.95;;;;;;;6.73;100.00;101154.75;5034948;28;20065;-71
2023/04/28 04:54:32;;;;;;;18.08;8.95;;;;;;;6.71;100.00;101144.28;5035730;28;20030;-71
2023/04/28 04:56:58;;;;;;;15.27;8.65;;;;;;;6.71;100.00;101144.28;5034968;28;20055;-71
2023/04/28 04:59:23;;;;;;;11.25;8.70;;;;;;;6.70;100.00;101131.16;5034987;28;20056;-72
2023/04/28 05:01:49;;;;;;;11.80;8.13;;;;;;;6.71;100.00;101125.78;5033150;28;20387;-72
2023/04/28 05:04:15;;;;;;;13.82;8.32;;;;;;;6.69;100.00;101130.34;5034845;28;20187;-71
2023/04/28 05:06:40;;;;;;;11.90;7.97;;;;;;;6.69;100.00;101125.03;5034866;28;20447;-72
2023/04/28 05:09:05;;;;;;;13.20;8.13;;;;;;;6.71;100.00;101124.94;5034880;28;20391;-72
2023/04/28 05:11:31;;;;;;;15.32;8.65;;;;;;;6.73;100.00;101124.81;5034397;28;20034;-72
2023/04/28 05:13:56;;;;;;;15.52;8.57;;;;;;;6.76;100.00;101124.63;5034467;28;20091;-71
2023/04/28 05:16:21;;;;;;;12.45;8.85;;;;;;;6.79;100.00;101112.03;5034033;28;20440;-71
2023/04/28 05:18:47;;;;;;;18.90;8.85;;;;;;;6.84;100.00;101115.19;5034186;28;20111;-72
2023/04/28 05:21:12;;;;;;;15.25;8.57;;;;;;;6.87;100.00;101112.31;5034195;28;20033;-72
2023/04/28 05:23:38;;;;;;;12.63;8.82;;;;;;;6.95;100.00;101110.94;5034024;28;20061;-72
2023/04/28 05:26:03;;;;;;;16.85;8.93;;;;;;;6.96;100.00;101102.91;5034800;28;20052;-73
2023/04/28 05:28:30;;;;;;;11.40;8.75;;;;;;;6.98;100.00;101102.78;5034381;28;20128;-72
2023/04/28 05:30:55;;;;;;;15.38;9.23;;;;;;;6.95;100.00;101101.19;5034650;28;20057;-72
2023/04/28 05:33:22;;;;;;;15.90;10.00;;;;;;;6.98;100.00;101100.97;5034831;28;20491;-72
2023/04/28 05:35:48;;;;;;;19.38;8.80;;;;;;;6.98;100.00;101100.97;5034090;28;20045;-72
2023/04/28 05:38:14;;;;;;;17.40;9.43;;;;;;;6.96;100.00;101104.72;5033997;28;20464;-73
2023/04/28 05:40:39;;;;;;;17.45;9.70;;;;;;;6.98;100.00;101100.97;5033987;28;20495;-70
2023/04/28 05:43:05;;;;;;;14.68;9.40;;;;;;;7.02;100.00;101101.63;5033486;28;20037;-72
2023/04/28 05:45:30;;;;;;;16.27;10.70;;;;;;;7.04;100.00;101108.47;5034017;28;20056;-72
2023/04/28 05:47:56;;;;;;;15.98;9.13;;;;;;;7.13;100.00;101129.94;5034454;28;20052;-72
2023/04/28 05:50:21;;;;;;;16.27;10.00;;;;;;;7.16;100.00;101125.28;5034241;28;20112;-73
2023/04/28 05:52:46;;;;;;;17.30;9.25;;;;;;;7.21;100.00;101122.28;5033812;28;20041;-71
2023/04/28 05:55:12;;;;;;;13.55;9.50;;;;;;;7.26;100.00;101120.19;5033044;28;20068;-71
2023/04/28 05:57:37;;;;;;;14.98;9.95;;;;;;;7.31;100.00;101114.56;5033327;28;20037;-71
2023/04/28 06:00:03;;;;;;;22.95;10.23;;;;;;;7.38;100.00;101113.16;5033537;28;20535;-71
2023/04/28 06:02:28;;;;;;;17.27;9.52;;;;;;;7.42;100.00;101111.97;5033550;28;20030;-72
2023/04/28 06:04:54;;;;;;;18.08;9.77;;;;;;;7.43;100.00;101108.34;5032501;28;20057;-71
2023/04/28 06:07:20;;;;;;;16.92;9.98;;;;;;;7.45;100.00;101108.25;5033419;28;20033;-71
2023/04/28 06:09:45;;;;;;;15.32;10.50;;;;;;;7.47;100.00;101109.81;5033788;28;20037;-71
2023/04/28 06:12:11;;;;;;;25.17;10.27;;;;;;;7.44;100.00;101120.66;5033772;28;20025;-71
2023/04/28 06:14:36;;;;;;;15.73;10.40;;;;;;;7.46;100.00;101116.06;5033609;28;20527;-71
2023/04/28 06:17:02;;;;;;;21.13;10.13;;;;;;;7.42;100.00;101111.97;5032016;28;20033;-71
2023/04/28 06:19:28;;;;;;;14.77;10.15;;;;;;;7.46;100.00;101110.78;5032898;28;20130;-71
2023/04/28 06:21:53;;;;;;;18.17;10.10;;;;;;;7.45;100.00;101095.88;5031865;28;20034;-71
2023/04/28 06:24:19;;;;;;;14.90;10.55;;;;;;;7.36;100.00;101092.09;5032955;28;20037;-71
2023/04/28 06:26:45;;;;;;;17.52;11.20;;;;;;;7.29;100.00;101093.50;5031936;28;20030;-71
2023/04/28 06:29:10;;;;;;;21.23;11.90;;;;;;;7.22;100.00;101097.53;5033172;28;20135;-72
2023/04/28 06:31:36;;;;;;;20.38;12.13;;;;;;;7.22;100.00;101093.06;5033175;28;20476;-72
2023/04/28 06:34:01;;;;;;;21.15;11.80;;;;;;;7.32;100.00;101082.69;5033441;28;20034;-71
2023/04/28 06:36:27;;;;;;;17.20;11.38;;;;;;;7.39;100.00;101083.91;5032969;28;20112;-71
2023/04/28 06:38:52;;;;;;;19.55;11.73;;;;;;;7.55;100.00;101093.38;5033021;28;20029;-71
2023/04/28 06:41:18;;;;;;;18.42;11.13;;;;;;;7.66;100.00;101092.56;5032964;28;20447;-71
2023/04/28 06:43:43;;;;;;;16.73;12.23;;;;;;;7.71;100.00;101091.28;5031652;28;20085;-71
2023/04/28 06:46:10;;;;;;;21.85;11.75;;;;;;;7.76;100.00;101101.53;5031962;28;20382;-71
2023/04/28 06:48:35;;;;;;;17.10;11.93;;;;;;;7.81;100.00;101103.81;5031839;28;20407;-71
2023/04/28 06:51:00;;;;;;;20.92;12.43;;;;;;;7.81;100.00;101099.41;5033427;28;20040;-71
2023/04/28 06:53:26;;;;;;;21.98;12.90;;;;;;;7.75;100.00;101098.03;5032869;28;20029;-71
2023/04/28 06:55:52;;;;;;;19.98;12.82;;;;;;;7.79;100.00;101101.28;5032529;28;20034;-71
2023/04/28 06:58:17;;;;;;;17.85;12.30;;;;;;;7.84;100.00;101098.34;5032680;28;20160;-72
2023/04/28 07:00:42;;;;;;;17.27;11.88;;;;;;;7.86;100.00;101094.59;5032850;28;20032;-71
2023/04/28 07:03:08;;;;;;;23.27;11.82;;;;;;;7.91;100.00;101095.09;5032601;28;20159;-71
2023/04/28 07:05:33;;;;;;;21.00;12.60;;;;;;;7.99;100.00;101098.97;5033314;28;20487;-72
2023/04/28 07:07:59;;;;;;;19.40;12.48;;;;;;;8.04;100.00;101102.13;5037605;28;20367;-72
2023/04/28 07:10:24;;;;;;;19.65;12.85;;;;;;;8.06;100.00;101098.41;5038816;28;20041;-72
2023/04/28 07:12:51;;;;;;;18.25;12.52;;;;;;;8.08;100.00;101093.81;5039080;28;20116;-71
2023/04/28 07:15:16;;;;;;;21.23;13.27;;;;;;;8.08;100.00;101096.47;5039245;28;20114;-72
2023/04/28 07:17:42;;;;;;;23.27;13.50;;;;;;;8.06;100.00;101097.53;5037913;28;20041;-72
2023/04/28 07:20:08;;;;;;;24.88;13.60;;;;;;;8.11;100.00;101095.41;5021505;28;20059;-72
2023/04/28 07:22:33;;;;;;;19.60;13.70;;;;;;;8.21;100.00;101088.44;5037815;28;20563;-72
2023/04/28 07:24:58;;;;;;;24.20;14.13;;;;;;;8.35;100.00;101100.63;5038903;28;20112;-71
2023/04/28 07:27:24;;;;;;;23.92;14.77;;;;;;;8.47;100.00;101098.84;5038037;28;20129;-72
2023/04/28 07:29:49;;;;;;;20.88;13.88;;;;;;;8.56;100.00;101103.44;5039433;28;20434;-71
2023/04/28 07:32:14;;;;;;;20.88;14.02;;;;;;;8.65;100.00;101096.56;5039100;28;20033;-71
2023/04/28 07:34:40;;;;;;;22.88;13.82;;;;;;;8.73;100.00;101101.28;5038995;28;20034;-71
2023/04/28 07:37:06;;;;;;;27.00;13.95;;;;;;;8.78;100.00;101102.59;5039059;28;20029;-71
2023/04/28 07:39:33;;;;;;;22.27;14.48;;;;;;;8.84;100.00;101085.38;5038975;28;20033;-72
2023/04/28 07:41:59;;;;;;;22.20;14.07;;;;;;;8.95;100.00;101088.00;5039254;28;20083;-72
2023/04/28 07:44:25;;;;;;;20.88;14.82;;;;;;;9.11;100.00;101087.63;5037728;28;20048;-72
2023/04/28 07:46:50;;;;;;;22.80;15.48;;;;;;;9.39;100.00;101093.34;5037565;28;20357;-72
2023/04/28 07:49:16;;;;;;;23.17;14.20;;;;;;;9.47;100.00;101082.09;5038284;28;20037;-72
2023/04/28 07:51:41;;;;;;;20.23;14.60;;;;;;;9.62;100.00;101087.97;5039433;28;20057;-72
2023/04/28 07:54:07;;;;;;;24.92;14.40;;;;;;;9.69;100.00;101083.84;5037560;28;20040;-72
2023/04/28 07:56:32;;;;;;;26.17;15.15;;;;;;;9.71;100.00;101090.69;5038844;28;20033;-72
2023/04/28 07:58:57;;;;;;;22.55;15.02;;;;;;;9.72;100.00;101086.22;5037524;28;20368;-73
2023/04/28 08:01:23;;;;;;;21.95;15.45;;;;;;;9.67;100.00;101089.28;5037929;28;20037;-74
2023/04/28 08:03:48;;;;;;;23.83;15.32;;;;;;;9.61;100.00;101095.06;5038967;28;20443;-72
2023/04/28 08:06:14;;;;;;;21.50;14.93;;;;;;;9.63;100.00;101092.28;5038884;28;20048;-72
2023/04/28 08:08:39;;;;;;;22.38;16.00;;;;;;;9.63;100.00;101081.66;5039003;28;20332;-72
2023/04/28 08:11:05;;;;;;;22.30;15.73;;;;;;;9.67;100.00;101086.63;5037872;28;20033;-73
2023/04/28 08:13:31;;;;;;;24.83;15.95;;;;;;;9.69;100.00;101091.81;5037548;28;20030;-73
2023/04/28 08:15:59;;;;;;;25.48;16.90;;;;;;;9.79;100.00;101091.88;5037698;28;20473;-73
2023/04/28 08:18:24;;;;;;;36.13;16.58;;;;;;;9.93;100.00;101090.72;5037294;28;20041;-73
2023/04/28 08:20:50;;;;;;;24.70;16.60;;;;;;;10.06;100.00;101092.22;5035667;28;20480;-73
2023/04/28 08:23:15;;;;;;;24.20;16.63;;;;;;;10.24;100.00;101079.19;5017808;28;20380;-73
2023/04/28 08:25:40;;;;;;;25.63;16.42;;;;;;;10.33;100.00;101085.56;5017515;28;20514;-72
2023/04/28 08:28:07;;;;;;;23.40;16.67;;;;;;;10.38;100.00;101082.50;5035495;28;20132;-73
2023/04/28 08:30:33;;;;;;;26.60;16.80;;;;;;;10.47;100.00;101076.38;5035426;28;20072;-73
2023/04/28 08:32:58;;;;;;;25.13;17.00;;;;;;;10.56;100.00;101078.25;5035637;28;20052;-72
2023/04/28 08:35:23;;;;;;;25.42;17.33;;;;;;;10.61;100.00;101077.00;5035727;28;20080;-72
2023/04/28 08:37:51;;;;;;;23.55;17.92;;;;;;;10.65;100.00;101075.78;5035151;28;20030;-72
2023/04/28 08:40:16;;;;;;;26.52;17.65;;;;;;;10.68;100.00;101070.19;5035652;28;20087;-73
2023/04/28 08:42:44;;;;;;;25.17;17.52;;;;;;;10.85;100.00;101074.88;5035405;28;20111;-73
2023/04/28 08:45:15;;;;;;;24.73;17.45;;;;;;;11.00;100.00;101069.16;5035801;28;20030;-73
2023/04/28 08:47:44;;;;;;;25.75;19.27;;;;;;;11.10;100.00;101073.50;5035511;28;20074;-73
2023/04/28 08:50:12;;;;;;;26.02;18.80;;;;;;;11.23;100.00;101067.94;5035202;28;20033;-72
2023/04/28 08:52:38;;;;;;;23.13;17.58;;;;;;;11.36;100.00;101067.69;5035167;28;20037;-72
2023/04/28 08:55:11;;;;;;;28.45;20.77;;;;;;;11.49;100.00;101066.56;5034115;28;20471;-73
2023/04/28 08:57:53;;;;;;;25.58;19.35;;;;;;;11.54;100.00;101065.19;5035406;28;20039;-73
2023/04/28 09:00:19;;;;;;;23.60;19.60;;;;;;;11.67;100.00;101064.88;5035797;28;20163;-73
2023/04/28 09:02:44;;;;;;;28.30;20.17;;;;;;;11.57;100.00;101056.03;5035058;28;20026;-73
2023/04/28 09:05:11;;;;;;;28.95;21.58;;;;;;;11.70;100.00;101055.78;5035926;28;20053;-73
2023/04/28 09:07:36;;;;;;;29.52;21.73;;;;;;;11.79;100.00;101061.13;5034881;28;20044;-72
2023/04/28 09:10:22;;;;;;;26.05;20.98;;;;;;;11.94;100.00;101052.69;5034970;28;20030;-72
2023/04/28 09:12:51;;;;;;;27.52;21.30;;;;;;;11.98;100.00;101052.25;5033157;28;20044;-73
2023/04/28 09:15:36;;;;;;;24.45;19.10;;;;;;;11.96;100.00;101054.22;5034606;28;20029;-72
2023/04/28 09:18:03;;;;;;;29.30;20.40;;;;;;;12.07;100.00;101057.72;5035051;28;20033;-72
2023/04/28 09:20:30;;;;;;;25.92;18.90;;;;;;;12.19;100.00;101053.91;5035247;28;20033;-72
2023/04/28 09:23:15;;;;;;;24.15;18.17;;;;;;;12.30;100.00;101050.22;5035181;28;20091;-72
2023/04/28 09:26:01;;;;;;;25.60;17.85;;;;;;;12.67;100.00;101049.38;5035119;28;20518;-72
2023/04/28 09:28:27;;;;;;;21.05;15.60;;;;;;;12.79;100.00;101050.03;5033779;28;20037;-73
2023/04/28 09:30:53;;;;;;;19.60;15.63;;;;;;;12.91;100.00;101043.47;5034513;28;20129;-73
2023/04/28 09:33:20;;;;;;;105.15;19.23;;;;;;;12.97;100.00;101050.94;5034600;28;20033;-72
2023/04/28 09:35:47;;;;;;;19.60;14.57;;;;;;;12.94;100.00;101047.69;5032969;28;20033;-72
2023/04/28 09:38:13;;;;;;;19.15;13.60;;;;;;;12.96;100.00;101045.72;5034710;28;20042;-72
2023/04/28 09:40:55;;;;;;;18.63;13.57;;;;;;;12.98;100.00;101049.09;5034258;28;20030;-72
2023/04/28 09:43:25;;;;;;;18.67;14.07;;;;;;;13.01;100.00;101049.63;5034466;28;20025;-71
2023/04/28 09:45:51;;;;;;;17.77;14.63;;;;;;;13.07;100.00;101056.19;5034073;28;20028;-72
2023/04/28 09:48:25;;;;;;;16.67;12.90;;;;;;;13.05;100.00;101059.00;5033921;28;20470;-72
2023/04/28 09:50:53;;;;;;;16.73;11.85;;;;;;;12.97;100.00;101050.94;5033880;28;20093;-71
2023/04/28 09:53:21;;;;;;;14.55;11.23;;;;;;;12.94;100.00;101053.88;5034181;28;20052;-71
2023/04/28 09:55:48;;;;;;;13.10;10.68;;;;;;;12.91;100.00;101050.66;5033500;28;20033;-72
2023/04/28 09:58:15;;;;;;;34.15;12.55;;;;;;;12.88;100.00;101058.00;5032712;28;20029;-72
2023/04/28 10:00:41;;;;;;;15.00;9.57;;;;;;;12.63;100.00;101061.31;5033886;28;20112;-72
2023/04/28 10:03:08;;;;;;;16.77;9.85;;;;;;;12.38;100.00;101063.69;5034421;28;20065;-72
2023/04/28 10:05:34;;;;;;;13.07;7.53;;;;;;;12.20;100.00;101066.25;5033077;28;20036;-72
2023/04/28 10:08:02;;;;;;;14.88;7.75;;;;;;;12.00;100.00;101060.13;5034169;28;20113;-71
2023/04/28 10:10:28;;;;;;;14.50;7.40;;;;;;;11.91;100.00;101063.59;5034197;28;20039;-73
2023/04/28 10:12:54;;;;;;;13.18;6.63;;;;;;;11.74;100.00;101062.50;5032321;28;20025;-72
2023/04/28 10:15:19;;;;;;;15.38;7.22;;;;;;;11.73;100.00;101066.97;5033621;28;20541;-73
2023/04/28 10:17:46;;;;;;;18.30;7.28;;;;;;;11.77;100.00;101068.38;5033429;28;20033;-73
2023/04/28 10:20:14;;;;;;;17.23;7.70;;;;;;;11.77;100.00;101075.56;5033711;28;20075;-73
2023/04/28 10:23:25;;;;;;;20.42;7.75;;;;;;;11.74;100.00;101073.19;5033226;28;20483;-72
2023/04/28 10:25:58;;;;;;;19.25;8.05;;;;;;;11.75;100.00;101073.03;5033146;28;20057;-73
2023/04/28 10:28:25;;;;;;;21.05;9.20;;;;;;;11.69;100.00;101078.94;5033639;28;20041;-72
2023/04/28 10:31:13;;;;;;;24.58;9.32;;;;;;;11.65;100.00;101088.19;5033312;28;20025;-73
2023/04/28 10:33:40;;;;;;;20.42;9.55;;;;;;;11.56;100.00;101089.03;5033719;28;20021;-73
2023/04/28 10:36:06;;;;;;;21.48;9.73;;;;;;;11.50;100.00;101084.25;5033358;28;20037;-72
2023/04/28 10:38:33;;;;;;;22.48;10.35;;;;;;;11.49;100.00;101096.72;5033485;28;20060;-72
2023/04/28 10:41:02;;;;;;;21.70;9.82;;;;;;;11.44;100.00;101085.66;5032439;28;20034;-72
2023/04/28 10:43:27;;;;;;;23.27;10.32;;;;;;;11.42;100.00;101092.91;5033130;28;20037;-72
2023/04/28 10:45:55;;;;;;;28.02;11.45;;;;;;;11.32;100.00;101092.09;5033439;28;20030;-72
2023/04/28 10:48:42;;;;;;;29.58;11.75;;;;;;;11.25;100.00;101089.13;5033049;28;20025;-72
2023/04/28 10:51:11;;;;;;;26.60;12.13;;;;;;;11.21;100.00;101093.88;5033953;28;20363;-73
2023/04/28 10:53:49;;;;;;;22.30;10.32;;;;;;;11.15;100.00;101102.44;5033465;28;20025;-72
2023/04/28 10:56:26;;;;;;;20.23;8.93;;;;;;;11.08;100.00;101096.78;5032689;28;20351;-73
2023/04/28 10:58:56;;;;;;;21.52;8.18;;;;;;;11.03;100.00;101090.19;5032918;28;20091;-74
2023/04/28 11:01:22;;;;;;;19.83;6.60;;;;;;;11.04;100.00;101094.53;5032998;28;20025;-73
2023/04/28 11:03:59;;;;;;;11.15;5.15;;;;;;;11.03;100.00;101095.50;5032665;28;20085;-73
2023/04/28 11:06:35;;;;;;;9.50;4.93;;;;;;;11.05;100.00;101093.56;5033152;28;20033;-73
2023/04/28 11:09:13;;;;;;;8.43;4.35;;;;;;;11.09;100.00;101092.28;5033368;28;20052;-73
2023/04/28 11:11:54;;;;;;;4.90;3.05;;;;;;;11.10;100.00;101097.47;5032807;28;20041;-73